Wells, Texas
Current Conditions -  °F | °C
As of 4:55 PM on Wednesday 26 Nov 2014 (Local Time) from KOCH Reporting Station
Clear Clear  
Wind Chill: 64°   Ceiling: Unl
Heat Index: 64°   Visibility: 10mi
Dew Point: 34°   Wind: 8mph
Humidity: 32%   Direction: 310°NW
Pressure: 30.19"   Gusts: NA
Location:  31.49°N, 94.94°W
Report Text: KOCH 262255Z AUTO 31007KT 10SM CLR 18/01 A3019 RMK AO1
Loading
Personal Weather Stations






























Interactive Weather Map New forecast layout! Learn more

10-Day Weather Forecast

Advertisements
Track Severe Weather on mobile